Time;durP1;ratioP1;P1;durP2;ratioP2;P2;SDS_P1;SDS_P2;PMS_P1;PMS_P2;Temp;Humidity;BMP_temperature;BMP_pressure;BME280_temperature;BME280_humidity;BME280_pressure;Samples;Min_cycle;Max_cycle;Signal;HPM_P1;HPM_P2
2022/01/29 00:00:14;;;;;;;15.63;3.50;;;;;;;2.37;71.24;102625.44;5023599;28;20032;-49
2022/01/29 00:02:40;;;;;;;12.43;2.88;;;;;;;2.35;71.77;102628.25;5025607;28;20049;-49
2022/01/29 00:05:06;;;;;;;11.13;2.63;;;;;;;2.37;71.18;102623.63;5023123;28;20033;-48
2022/01/29 00:07:32;;;;;;;13.45;2.97;;;;;;;2.36;71.62;102624.63;5025489;28;20029;-48
2022/01/29 00:10:03;;;;;;;14.77;3.22;;;;;;;2.36;71.70;102616.69;5024400;28;20033;-48
2022/01/29 00:12:29;;;;;;;13.23;2.80;;;;;;;2.34;71.70;102623.09;5026435;28;20025;-49
2022/01/29 00:14:54;;;;;;;15.43;2.75;;;;;;;2.33;71.58;102618.75;5024118;28;20095;-47
2022/01/29 00:17:20;;;;;;;14.95;3.50;;;;;;;2.34;71.91;102615.16;5026949;28;20029;-49
2022/01/29 00:19:45;;;;;;;12.63;3.20;;;;;;;2.33;72.03;102618.75;5024493;28;20407;-48
2022/01/29 00:22:11;;;;;;;15.30;3.40;;;;;;;2.33;72.04;102618.75;5026757;28;20120;-49
2022/01/29 00:24:37;;;;;;;12.65;2.88;;;;;;;2.33;72.09;102621.41;5028980;28;20363;-47
2022/01/29 00:27:08;;;;;;;12.52;3.28;;;;;;;2.33;72.13;102616.13;5026912;28;20087;-47
2022/01/29 00:29:35;;;;;;;12.75;3.03;;;;;;;2.37;72.04;102622.81;5027017;28;20367;-48
2022/01/29 00:32:00;;;;;;;13.32;2.97;;;;;;;2.39;71.86;102624.31;5022903;28;20026;-48
2022/01/29 00:34:26;;;;;;;20.08;3.58;;;;;;;2.41;71.99;102614.41;5025345;28;20039;-47
2022/01/29 00:36:51;;;;;;;12.68;3.17;;;;;;;2.42;71.99;102610.78;5026256;28;20036;-47
2022/01/29 00:39:17;;;;;;;19.08;3.35;;;;;;;2.43;72.10;102598.38;5026329;28;20029;-47
2022/01/29 00:41:42;;;;;;;11.45;3.00;;;;;;;2.44;72.00;102605.34;5023440;28;20467;-48
2022/01/29 00:44:08;;;;;;;20.25;4.45;;;;;;;2.46;71.94;102594.59;5025702;28;20033;-47
2022/01/29 00:46:38;;;;;;;11.63;2.88;;;;;;;2.47;71.86;102589.16;5040111;28;20040;-47
2022/01/29 00:49:04;;;;;;;12.77;3.17;;;;;;;2.47;72.28;102586.50;5027079;28;20033;-47
2022/01/29 00:51:29;;;;;;;16.33;3.03;;;;;;;2.46;72.22;102587.50;5026466;28;20029;-47
2022/01/29 00:53:55;;;;;;;16.63;3.03;;;;;;;2.46;72.15;102587.50;5026324;28;20170;-48
2022/01/29 00:56:21;;;;;;;9.45;2.80;;;;;;;2.48;72.46;102587.34;5026741;28;20119;-47
2022/01/29 00:58:46;;;;;;;12.00;2.70;;;;;;;2.52;72.30;102581.63;5027044;28;20172;-48
2022/01/29 01:01:12;;;;;;;13.65;3.03;;;;;;;2.53;72.27;102575.34;5028811;28;20028;-47
2022/01/29 01:03:37;;;;;;;18.27;2.83;;;;;;;2.53;72.32;102571.88;5031153;28;20057;-48
2022/01/29 01:06:03;;;;;;;15.63;2.63;;;;;;;2.52;72.32;102565.75;5029505;28;20034;-48
2022/01/29 01:08:28;;;;;;;13.60;3.08;;;;;;;2.51;72.39;102558.78;5029702;28;20025;-48
2022/01/29 01:10:54;;;;;;;13.15;2.53;;;;;;;2.51;72.73;102553.47;5028869;28;20025;-49
2022/01/29 01:13:20;;;;;;;16.15;3.10;;;;;;;2.51;72.72;102540.25;5030862;28;20259;-47
2022/01/29 01:15:45;;;;;;;15.63;2.83;;;;;;;2.52;72.79;102536.66;5017791;22;20045;-48
2022/01/29 01:18:11;;;;;;;17.83;3.67;;;;;;;2.51;73.04;102532.31;4991353;28;20041;-46
2022/01/29 01:20:36;;;;;;;15.15;3.90;;;;;;;2.48;73.19;102524.69;4990294;28;20034;-45
2022/01/29 01:23:02;;;;;;;15.45;3.08;;;;;;;2.48;73.64;102519.38;4990527;28;20036;-45
2022/01/29 01:25:27;;;;;;;13.52;3.35;;;;;;;2.47;73.45;102515.09;4982057;28;20035;-45
2022/01/29 01:27:53;;;;;;;12.48;2.72;;;;;;;2.48;73.62;102511.44;4978572;28;20113;-45
2022/01/29 01:30:19;;;;;;;14.85;2.90;;;;;;;2.50;73.60;102508.66;4977201;28;20030;-46
2022/01/29 01:32:44;;;;;;;13.30;2.85;;;;;;;2.52;73.60;102498.78;4979377;28;20095;-46
2022/01/29 01:35:25;;;;;;;17.13;3.50;;;;;;;2.51;73.72;102497.91;4976330;28;20022;-45
2022/01/29 01:40:35;;;;;;;22.52;3.35;;;;;;;2.53;73.87;102492.50;4975562;28;20087;-46
2022/01/29 01:43:01;;;;;;;14.88;3.17;;;;;;;2.54;74.04;102494.16;4970839;28;20038;-46
2022/01/29 01:45:27;;;;;;;15.07;3.42;;;;;;;2.55;74.03;102480.78;4971959;28;20039;-46
2022/01/29 01:47:54;;;;;;;19.15;3.08;;;;;;;2.54;73.71;102478.28;4976124;28;20053;-45
2022/01/29 01:50:21;;;;;;;17.20;3.47;;;;;;;2.55;73.97;102475.47;4976399;28;20150;-47
2022/01/29 01:52:47;;;;;;;15.85;2.97;;;;;;;2.55;74.09;102456.97;4973819;28;20038;-45
2022/01/29 01:55:14;;;;;;;13.10;3.40;;;;;;;2.53;74.27;102444.88;4973445;28;20069;-45
2022/01/29 01:57:39;;;;;;;12.48;3.47;;;;;;;2.48;74.33;102436.53;4973729;28;20496;-45
2022/01/29 02:00:06;;;;;;;24.30;3.50;;;;;;;2.45;74.31;102444.78;4974595;28;20029;-45
2022/01/29 02:02:32;;;;;;;16.30;3.83;;;;;;;2.45;74.46;102445.63;4973199;28;20058;-47
2022/01/29 02:04:57;;;;;;;22.02;4.38;;;;;;;2.45;74.61;102432.38;4975451;28;20293;-45
2022/01/29 02:07:23;;;;;;;12.55;3.20;;;;;;;2.44;74.83;102433.38;4976770;28;20376;-46
2022/01/29 02:09:49;;;;;;;15.95;3.55;;;;;;;2.46;74.93;102426.13;4975778;28;20027;-46
2022/01/29 02:12:14;;;;;;;22.88;3.13;;;;;;;2.48;74.61;102424.13;4973597;28;20058;-45
2022/01/29 02:14:40;;;;;;;21.95;2.97;;;;;;;2.53;74.51;102413.13;4976096;28;20066;-46
2022/01/29 02:17:08;;;;;;;13.95;3.83;;;;;;;2.54;74.68;102410.31;4975797;28;20373;-45
2022/01/29 02:19:33;;;;;;;19.23;3.65;;;;;;;2.53;74.69;102395.44;4968290;28;20019;-47
2022/01/29 02:21:59;;;;;;;17.23;3.13;;;;;;;2.55;74.77;102393.44;4970353;28;20481;-45
2022/01/29 02:24:25;;;;;;;14.68;2.75;;;;;;;2.55;74.67;102385.50;4973790;28;20153;-45
2022/01/29 02:26:51;;;;;;;19.95;5.85;;;;;;;2.57;74.61;102382.72;4973692;28;20057;-46
2022/01/29 02:29:18;;;;;;;14.32;2.88;;;;;;;2.60;74.58;102385.88;4976385;28;20420;-45
2022/01/29 02:31:53;;;;;;;11.82;2.75;;;;;;;2.63;74.57;102372.31;4973885;28;20038;-46
2022/01/29 02:34:19;;;;;;;23.20;4.43;;;;;;;2.68;74.63;102361.25;4975318;28;20026;-45
2022/01/29 02:36:46;;;;;;;16.92;3.45;;;;;;;2.71;74.38;102353.88;4971859;28;20121;-45
2022/01/29 02:39:13;;;;;;;21.10;3.08;;;;;;;2.74;74.57;102350.06;4970685;28;20054;-46
2022/01/29 02:41:42;;;;;;;12.75;2.92;;;;;;;2.77;74.47;102339.16;4970707;28;20049;-46
2022/01/29 02:44:08;;;;;;;13.75;2.88;;;;;;;2.80;74.63;102330.06;4972388;28;20464;-47
2022/01/29 02:49:12;;;;;;;13.95;3.67;;;;;;;2.85;74.64;102314.53;4972548;28;20034;-46
2022/01/29 02:51:52;;;;;;;15.60;3.42;;;;;;;2.80;74.74;102303.59;4972533;28;20059;-45
2022/01/29 02:54:19;;;;;;;11.48;3.13;;;;;;;2.84;74.48;102294.34;4971963;28;20030;-46
2022/01/29 02:56:45;;;;;;;16.88;2.80;;;;;;;2.84;74.70;102283.75;4971629;28;20027;-45
2022/01/29 02:59:11;;;;;;;26.10;2.95;;;;;;;2.85;74.44;102280.13;4972505;28;20031;-45
2022/01/29 03:01:37;;;;;;;13.32;3.28;;;;;;;2.81;75.06;102274.31;4973148;28;20030;-45
2022/01/29 03:04:04;;;;;;;16.95;3.95;;;;;;;2.81;75.10;102265.56;4972641;28;20026;-45
2022/01/29 03:06:30;;;;;;;17.45;3.17;;;;;;;2.81;75.30;102266.38;4971351;28;20250;-46
2022/01/29 03:08:55;;;;;;;13.93;3.28;;;;;;;2.84;75.05;102262.56;4973887;28;20030;-46
2022/01/29 03:11:22;;;;;;;14.57;4.43;;;;;;;2.83;75.27;102250.34;4968587;28;20764;-46
2022/01/29 03:13:48;;;;;;;11.82;2.88;;;;;;;2.84;75.40;102257.28;4966955;28;20040;-45
2022/01/29 03:16:15;;;;;;;14.23;3.08;;;;;;;2.83;75.61;102258.28;4968999;28;20022;-46
2022/01/29 03:18:40;;;;;;;19.98;4.68;;;;;;;2.82;75.74;102249.50;4973912;28;20108;-45
2022/01/29 03:21:06;;;;;;;14.88;3.63;;;;;;;2.83;75.67;102245.03;4977055;28;20022;-45
2022/01/29 03:23:31;;;;;;;19.15;3.08;;;;;;;2.86;75.62;102244.72;4971865;28;20481;-47
2022/01/29 03:25:57;;;;;;;18.95;3.75;;;;;;;2.88;75.41;102250.69;4972132;28;20451;-47
2022/01/29 03:28:22;;;;;;;22.83;3.53;;;;;;;2.90;75.73;102246.91;4974986;28;20026;-45
2022/01/29 03:30:48;;;;;;;16.55;3.53;;;;;;;2.93;75.10;102230.69;4975713;28;20037;-45
2022/01/29 03:33:13;;;;;;;14.45;3.22;;;;;;;2.94;75.53;102226.22;4969680;28;20396;-45
2022/01/29 03:35:39;;;;;;;14.55;3.53;;;;;;;2.95;75.35;102214.63;4968982;28;20035;-46
2022/01/29 03:38:05;;;;;;;15.85;3.08;;;;;;;2.94;75.71;102207.69;4969576;28;20085;-47
2022/01/29 03:40:32;;;;;;;15.70;3.53;;;;;;;2.98;75.51;102201.06;4971268;28;20030;-45
2022/01/29 03:43:04;;;;;;;11.18;3.35;;;;;;;2.98;75.69;102198.44;4972636;28;20034;-45
2022/01/29 03:45:31;;;;;;;20.02;3.95;;;;;;;2.95;76.37;102199.59;4974530;28;20034;-46
2022/01/29 03:47:56;;;;;;;19.15;2.97;;;;;;;2.97;76.31;102194.94;4975648;28;20073;-45
2022/01/29 03:50:22;;;;;;;21.98;4.32;;;;;;;2.96;76.04;102195.94;4975506;28;20033;-45
2022/01/29 03:52:48;;;;;;;14.75;3.42;;;;;;;2.95;76.47;102190.81;4973659;28;20038;-46
2022/01/29 03:55:13;;;;;;;11.35;3.67;;;;;;;2.96;76.09;102174.75;4966946;28;20030;-45
2022/01/29 03:57:38;;;;;;;17.20;3.90;;;;;;;2.95;76.74;102178.41;4972809;28;20189;-46
2022/01/29 04:00:05;;;;;;;15.85;4.30;;;;;;;2.94;76.89;102167.97;4971236;28;20030;-46
2022/01/29 04:02:31;;;;;;;18.33;4.28;;;;;;;2.94;76.76;102165.31;4973366;28;20593;-45
2022/01/29 04:04:56;;;;;;;15.90;3.63;;;;;;;2.92;77.17;102162.03;4971168;28;20035;-46
2022/01/29 04:07:22;;;;;;;10.27;3.35;;;;;;;2.93;77.26;102150.44;4971236;28;20129;-47
2022/01/29 04:09:50;;;;;;;15.70;3.67;;;;;;;2.94;77.43;102146.78;4974951;28;20038;-45
2022/01/29 04:12:16;;;;;;;23.75;3.42;;;;;;;2.93;77.71;102139.84;4971321;28;20493;-45
2022/01/29 04:14:42;;;;;;;17.42;3.67;;;;;;;2.93;77.31;102143.31;4970299;28;20041;-47
2022/01/29 04:17:10;;;;;;;14.30;3.40;;;;;;;2.94;77.56;102144.16;4972051;28;20026;-46
2022/01/29 04:19:35;;;;;;;11.45;4.85;;;;;;;2.97;77.31;102130.59;4973057;28;20029;-46
2022/01/29 04:22:03;;;;;;;16.65;4.82;;;;;;;2.96;77.42;102115.69;4969675;28;20027;-46
2022/01/29 04:24:29;;;;;;;15.82;3.45;;;;;;;2.98;77.29;102116.34;4970845;28;20053;-46
2022/01/29 04:26:55;;;;;;;17.45;3.75;;;;;;;3.00;77.54;102109.06;4972005;28;20664;-46
2022/01/29 04:29:21;;;;;;;12.07;3.83;;;;;;;3.00;77.59;102114.34;4975692;28;20146;-47
2022/01/29 04:32:10;;;;;;;12.48;4.55;;;;;;;3.02;77.58;102104.44;4973724;28;20532;-46
2022/01/29 04:34:36;;;;;;;17.65;3.90;;;;;;;3.02;77.71;102097.31;4968493;28;20102;-46
2022/01/29 04:37:01;;;;;;;15.75;4.00;;;;;;;3.03;77.83;102092.84;4970383;28;20153;-46
2022/01/29 04:39:27;;;;;;;16.08;4.32;;;;;;;3.04;77.80;102083.91;4974158;28;20037;-46
2022/01/29 04:41:52;;;;;;;17.33;4.50;;;;;;;3.04;77.86;102078.59;4972843;28;20019;-46
2022/01/29 04:44:18;;;;;;;13.73;4.72;;;;;;;3.04;78.05;102073.31;4971367;28;20026;-46
2022/01/29 04:46:44;;;;;;;17.77;4.18;;;;;;;3.08;77.79;102071.19;4973185;28;20089;-46
2022/01/29 04:49:09;;;;;;;18.42;4.78;;;;;;;3.05;78.74;102064.38;4975118;28;20038;-46
2022/01/29 04:51:35;;;;;;;17.60;4.32;;;;;;;3.06;78.47;102049.34;4973597;28;20033;-46
2022/01/29 04:54:00;;;;;;;17.48;4.35;;;;;;;3.06;78.49;102047.53;4974179;28;20714;-46
2022/01/29 04:56:26;;;;;;;19.58;5.30;;;;;;;3.06;78.76;102039.56;4972937;28;20322;-45
2022/01/29 04:58:51;;;;;;;20.67;6.22;;;;;;;3.06;78.52;102026.34;4970706;28;20039;-48
2022/01/29 05:01:17;;;;;;;16.33;4.72;;;;;;;3.09;78.85;102020.69;4971839;28;20062;-45
2022/01/29 05:03:42;;;;;;;24.08;5.35;;;;;;;3.09;78.52;102012.75;4971279;28;20101;-46
2022/01/29 05:06:09;;;;;;;18.02;5.25;;;;;;;3.10;79.02;102013.59;4971820;28;20033;-48
2022/01/29 05:08:38;;;;;;;14.52;4.68;;;;;;;3.11;79.16;102005.47;4972088;28;20393;-45
2022/01/29 05:11:05;;;;;;;18.77;5.88;;;;;;;3.11;78.88;101999.34;4970673;28;20520;-47
2022/01/29 05:13:32;;;;;;;17.23;6.00;;;;;;;3.11;79.44;101984.28;4971590;28;20027;-45
2022/01/29 05:17:06;;;;;;;23.77;6.63;;;;;;;3.08;79.89;101984.63;4968251;28;20034;-47
2022/01/29 05:26:57;;;;;;;20.00;5.82;;;;;;;3.15;79.67;101953.81;4970369;28;20125;-46
2022/01/29 05:29:26;;;;;;;15.35;6.05;;;;;;;3.17;79.79;101962.41;4975496;28;20129;-46
2022/01/29 05:31:52;;;;;;;19.90;6.68;;;;;;;3.17;80.15;101951.00;4969400;28;20030;-45
2022/01/29 05:34:19;;;;;;;17.05;6.47;;;;;;;3.18;80.20;101944.69;4974105;28;20092;-46
2022/01/29 05:36:45;;;;;;;24.92;7.18;;;;;;;3.19;80.16;101933.09;4963465;28;20030;-46
2022/01/29 05:39:10;;;;;;;20.42;6.47;;;;;;;3.18;80.49;101926.97;4975025;28;20518;-46
2022/01/29 05:41:36;;;;;;;23.27;6.60;;;;;;;3.18;80.82;101924.34;4974296;28;20042;-45
2022/01/29 05:44:02;;;;;;;19.92;7.88;;;;;;;3.20;80.73;101913.56;4971705;28;20153;-48
2022/01/29 05:46:27;;;;;;;20.85;7.43;;;;;;;3.19;81.27;101931.28;4973058;28;20041;-47
2022/01/29 05:48:53;;;;;;;21.83;6.93;;;;;;;3.21;81.01;101928.47;4971358;28;20366;-47
2022/01/29 05:51:18;;;;;;;22.90;7.18;;;;;;;3.21;81.00;101918.69;4977040;28;20034;-46
2022/01/29 05:53:43;;;;;;;20.20;7.32;;;;;;;3.19;81.79;101906.63;4975587;28;20569;-48
2022/01/29 05:56:09;;;;;;;23.30;8.68;;;;;;;3.20;81.96;101901.16;4977649;28;20026;-47
2022/01/29 05:58:35;;;;;;;23.90;8.45;;;;;;;3.20;82.25;101902.97;4974955;28;20118;-46
2022/01/29 06:01:00;;;;;;;20.02;7.28;;;;;;;3.23;82.03;101892.03;4978250;28;20049;-47
2022/01/29 06:03:26;;;;;;;21.40;8.20;;;;;;;3.24;81.76;101894.53;4976332;28;20057;-46
2022/01/29 06:05:51;;;;;;;20.55;7.50;;;;;;;3.25;81.77;101890.88;4974216;28;20023;-46
2022/01/29 06:08:17;;;;;;;18.60;7.40;;;;;;;3.26;82.14;101874.00;4974413;28;20038;-46
2022/01/29 06:10:43;;;;;;;20.25;8.10;;;;;;;3.26;82.34;101875.81;4975668;28;20602;-46
2022/01/29 06:13:12;;;;;;;19.02;7.10;;;;;;;3.29;82.03;101867.53;4967552;28;20038;-46
2022/01/29 06:15:42;;;;;;;22.20;8.27;;;;;;;3.30;82.43;101867.34;4969366;28;20047;-46
2022/01/29 06:18:12;;;;;;;16.70;8.55;;;;;;;3.30;82.74;101871.81;4972768;28;20035;-45
2022/01/29 06:20:37;;;;;;;22.40;8.02;;;;;;;3.31;82.75;101869.00;4970949;28;20465;-46
2022/01/29 06:23:03;;;;;;;20.58;8.70;;;;;;;3.31;83.05;101861.06;4978071;28;20053;-46
2022/01/29 06:25:29;;;;;;;20.65;8.38;;;;;;;3.32;82.97;101856.59;4972503;28;20027;-46
2022/01/29 06:27:55;;;;;;;16.23;8.55;;;;;;;3.32;83.29;101851.28;4972765;28;20392;-45
2022/01/29 06:30:20;;;;;;;21.45;9.40;;;;;;;3.36;83.04;101844.63;4973802;28;20038;-46
2022/01/29 06:32:46;;;;;;;17.67;7.68;;;;;;;3.38;83.25;101844.47;4973765;28;20034;-45
2022/01/29 06:35:12;;;;;;;17.90;8.25;;;;;;;3.38;83.28;101828.56;4974213;28;20037;-46
2022/01/29 06:37:38;;;;;;;17.67;7.72;;;;;;;3.36;83.71;101822.63;4975120;28;20499;-45
2022/01/29 06:40:04;;;;;;;22.90;8.63;;;;;;;3.33;84.44;101826.44;4977221;28;20417;-46
2022/01/29 06:42:30;;;;;;;22.50;9.27;;;;;;;3.38;83.96;101820.63;4972486;28;20018;-46
2022/01/29 06:44:55;;;;;;;22.67;8.73;;;;;;;3.39;83.86;101820.44;4970432;28;20323;-45
2022/01/29 06:47:21;;;;;;;18.40;9.27;;;;;;;3.42;83.51;101816.63;4973759;28;20042;-46
2022/01/29 06:49:47;;;;;;;22.23;9.60;;;;;;;3.45;83.17;101808.34;4970742;28;20030;-45
2022/01/29 06:52:12;;;;;;;21.42;9.55;;;;;;;3.42;83.90;101806.88;4971339;28;20030;-46
2022/01/29 06:54:38;;;;;;;21.63;8.75;;;;;;;3.42;83.92;101798.09;4974682;28;20053;-45
2022/01/29 06:57:03;;;;;;;20.15;8.90;;;;;;;3.43;83.86;101791.78;4976182;28;20108;-46
2022/01/29 06:59:29;;;;;;;16.50;7.82;;;;;;;3.48;83.46;101786.78;4975131;28;20282;-45
2022/01/29 07:01:55;;;;;;;17.45;9.15;;;;;;;3.45;84.08;101776.53;4967088;28;20050;-46
2022/01/29 07:04:20;;;;;;;18.95;8.80;;;;;;;3.47;83.85;101769.25;4972697;28;20438;-47
2022/01/29 07:06:45;;;;;;;18.27;8.75;;;;;;;3.46;84.10;101760.47;4975241;28;20030;-45
2022/01/29 07:09:11;;;;;;;20.95;9.20;;;;;;;3.47;83.83;101756.81;4975374;28;20073;-45
2022/01/29 07:11:36;;;;;;;20.88;9.00;;;;;;;3.48;83.89;101745.22;4973649;28;20035;-46
2022/01/29 07:14:03;;;;;;;18.00;9.10;;;;;;;3.49;84.13;101738.09;4974810;28;20639;-48
2022/01/29 07:16:30;;;;;;;22.60;9.65;;;;;;;3.51;83.89;101736.91;5014625;22;20585;-45
2022/01/29 07:18:56;;;;;;;16.35;8.15;;;;;;;3.54;83.92;101722.47;5022770;28;20518;-45
2022/01/29 07:21:21;;;;;;;17.27;8.85;;;;;;;3.54;84.15;101727.78;5023783;28;20025;-45
2022/01/29 07:23:46;;;;;;;16.70;8.88;;;;;;;3.56;83.97;101716.00;5039044;28;20110;-45
2022/01/29 07:26:12;;;;;;;17.80;8.20;;;;;;;3.56;83.86;101715.16;5013838;28;20439;-45
2022/01/29 07:28:39;;;;;;;19.75;9.48;;;;;;;3.56;84.46;101709.88;5006234;28;20038;-46
2022/01/29 07:31:05;;;;;;;18.70;8.30;;;;;;;3.57;83.91;101707.03;5006758;28;20501;-46
2022/01/29 07:33:31;;;;;;;22.08;9.23;;;;;;;3.56;84.67;101705.38;5007866;28;20026;-45
2022/01/29 07:35:57;;;;;;;17.13;8.30;;;;;;;3.59;84.69;101693.59;5006910;28;20026;-45
2022/01/29 07:38:23;;;;;;;16.63;7.68;;;;;;;3.62;84.50;101690.63;5006441;28;20140;-46
2022/01/29 07:40:49;;;;;;;16.30;8.32;;;;;;;3.61;84.61;101673.91;5007029;28;20033;-45
2022/01/29 07:43:14;;;;;;;19.17;9.02;;;;;;;3.62;85.04;101672.06;5008316;28;20518;-46
2022/01/29 07:45:40;;;;;;;16.65;9.40;;;;;;;3.62;85.07;101670.25;5006897;28;20030;-45
2022/01/29 07:48:05;;;;;;;21.45;9.25;;;;;;;3.65;84.72;101669.06;5005615;28;20513;-45
2022/01/29 07:50:31;;;;;;;19.13;8.65;;;;;;;3.67;84.88;101651.16;5006411;28;20279;-45
2022/01/29 07:52:59;;;;;;;19.65;9.18;;;;;;;3.69;84.74;101646.50;5007412;28;20117;-45
2022/01/29 07:55:25;;;;;;;19.58;8.88;;;;;;;3.71;85.12;101647.13;5006872;28;20526;-45
2022/01/29 07:57:50;;;;;;;19.02;8.75;;;;;;;3.71;85.19;101639.19;5009236;28;20347;-45
2022/01/29 08:00:16;;;;;;;15.38;7.72;;;;;;;3.72;85.38;101635.50;5004469;28;20116;-45
2022/01/29 08:02:43;;;;;;;16.60;8.82;;;;;;;3.77;85.21;101627.00;5007906;28;20471;-46
2022/01/29 08:05:10;;;;;;;15.95;7.93;;;;;;;3.77;85.55;101617.25;5006109;28;20034;-45
2022/01/29 08:07:35;;;;;;;14.88;8.30;;;;;;;3.80;85.17;101619.53;5005351;28;20029;-46
2022/01/29 08:10:01;;;;;;;16.02;7.93;;;;;;;3.80;85.44;101608.94;5006416;28;20173;-46
2022/01/29 08:12:26;;;;;;;15.52;8.18;;;;;;;3.82;85.48;101617.53;5005153;28;20407;-45
2022/01/29 08:14:52;;;;;;;13.13;7.75;;;;;;;3.82;85.62;101617.53;5004755;28;20096;-45
2022/01/29 08:17:17;;;;;;;17.58;8.40;;;;;;;3.85;85.82;101611.03;5007298;28;20018;-47
2022/01/29 08:19:43;;;;;;;17.60;8.40;;;;;;;3.87;85.71;101604.53;5006030;28;20467;-46
2022/01/29 08:22:08;;;;;;;14.98;8.57;;;;;;;3.90;85.92;101593.56;5004989;28;20475;-45
2022/01/29 08:24:33;;;;;;;17.65;7.80;;;;;;;3.89;86.32;101597.22;5006371;28;20034;-45
2022/01/29 08:26:59;;;;;;;14.32;7.28;;;;;;;3.91;86.20;101584.59;5004232;28;20044;-45
2022/01/29 08:29:24;;;;;;;16.95;8.00;;;;;;;3.95;85.93;101582.44;5006404;28;20033;-46
2022/01/29 08:31:50;;;;;;;13.38;7.38;;;;;;;3.95;86.18;101574.47;5006402;28;20434;-45
2022/01/29 08:34:15;;;;;;;14.20;6.97;;;;;;;3.98;86.11;101575.94;5006673;28;20113;-47
2022/01/29 08:36:41;;;;;;;15.13;7.53;;;;;;;3.98;86.35;101573.28;5019907;28;20028;-45
2022/01/29 08:39:06;;;;;;;14.52;7.25;;;;;;;3.99;86.49;101578.41;5006843;28;20053;-45
2022/01/29 08:41:32;;;;;;;13.23;6.55;;;;;;;3.98;86.99;101573.28;5006246;28;20076;-45
2022/01/29 08:43:57;;;;;;;13.65;6.95;;;;;;;4.03;86.04;101577.03;5007168;28;20107;-45
2022/01/29 08:46:23;;;;;;;13.02;6.80;;;;;;;4.04;86.91;101562.75;5007786;28;20025;-47
2022/01/29 08:48:50;;;;;;;12.90;6.93;;;;;;;4.03;87.00;101558.47;5006798;28;20159;-45
2022/01/29 08:51:15;;;;;;;11.13;6.22;;;;;;;4.07;86.79;101551.75;5004879;28;20432;-46
2022/01/29 08:53:41;;;;;;;11.80;6.57;;;;;;;4.07;86.85;101554.41;5006293;28;20108;-46
2022/01/29 08:56:07;;;;;;;13.10;6.53;;;;;;;4.10;87.18;101545.28;5003384;28;20113;-47
2022/01/29 08:58:32;;;;;;;14.27;7.10;;;;;;;4.12;86.94;101532.63;5005507;28;20026;-45
2022/01/29 09:00:58;;;;;;;11.88;6.20;;;;;;;4.14;86.69;101520.03;5005403;28;20038;-46
2022/01/29 09:03:24;;;;;;;10.40;6.55;;;;;;;4.15;86.59;101514.53;5005368;28;20025;-45
2022/01/29 09:05:49;;;;;;;16.30;7.10;;;;;;;4.16;87.29;101507.41;5003355;28;20056;-46
2022/01/29 09:08:17;;;;;;;9.98;5.43;;;;;;;4.15;87.67;101511.06;5004397;28;20471;-45
2022/01/29 09:10:43;;;;;;;10.15;6.00;;;;;;;4.19;86.99;101499.06;5003795;28;20030;-47
2022/01/29 09:13:09;;;;;;;12.82;6.65;;;;;;;4.17;87.57;101503.75;5003675;28;20040;-46
2022/01/29 09:15:35;;;;;;;10.00;6.03;;;;;;;4.19;87.95;101491.13;5003096;28;20033;-46
2022/01/29 09:18:01;;;;;;;13.18;5.90;;;;;;;4.21;87.44;101495.22;5005143;28;20030;-46
2022/01/29 09:20:27;;;;;;;12.70;6.25;;;;;;;4.23;87.90;101492.38;5005204;28;20088;-46
2022/01/29 09:22:52;;;;;;;9.98;5.75;;;;;;;4.24;87.79;101478.09;5008664;28;20025;-45
2022/01/29 09:25:18;;;;;;;12.35;5.63;;;;;;;4.26;87.62;101484.03;5022226;28;20041;-46
2022/01/29 09:27:43;;;;;;;10.10;5.53;;;;;;;4.28;87.83;101470.59;5006829;28;20045;-46
2022/01/29 09:30:09;;;;;;;9.88;5.32;;;;;;;4.29;87.88;101459.78;5008012;28;20468;-47
2022/01/29 09:32:35;;;;;;;11.88;5.10;;;;;;;4.30;88.12;101458.78;5004959;28;20161;-46
2022/01/29 09:35:01;;;;;;;9.25;5.30;;;;;;;4.31;88.40;101451.63;5008122;28;20030;-45
2022/01/29 09:37:26;;;;;;;7.50;5.30;;;;;;;4.34;88.14;101443.31;5006928;28;20376;-46
2022/01/29 09:39:53;;;;;;;9.50;5.60;;;;;;;4.34;88.14;101435.34;5007325;28;20022;-46
2022/01/29 09:42:19;;;;;;;7.45;4.07;;;;;;;4.35;88.63;101427.22;5006246;28;20107;-46
2022/01/29 09:44:47;;;;;;;9.98;4.55;;;;;;;4.35;89.42;101421.91;5007139;28;20272;-45
2022/01/29 09:47:16;;;;;;;8.30;4.35;;;;;;;4.40;88.54;101419.50;5007251;28;20033;-45
2022/01/29 09:49:41;;;;;;;8.48;4.45;;;;;;;4.42;88.46;101403.38;5007399;28;20495;-45
2022/01/29 09:52:08;;;;;;;8.00;4.13;;;;;;;4.44;88.84;101399.50;5005435;28;20036;-47
2022/01/29 09:54:33;;;;;;;8.27;3.80;;;;;;;4.46;88.79;101399.31;5007067;28;20491;-46
2022/01/29 09:56:59;;;;;;;8.45;4.55;;;;;;;4.49;88.40;101389.16;5008616;28;20061;-45
2022/01/29 09:59:25;;;;;;;7.72;4.63;;;;;;;4.51;88.92;101373.88;5007840;28;20025;-45
2022/01/29 10:01:50;;;;;;;6.75;4.05;;;;;;;4.51;89.15;101378.34;5007709;28;20148;-46
2022/01/29 10:04:16;;;;;;;8.13;4.85;;;;;;;4.48;89.77;101378.72;5009874;28;20140;-46
2022/01/29 10:06:44;;;;;;;7.55;4.32;;;;;;;4.50;89.48;101372.22;5007811;28;20026;-47
2022/01/29 10:09:11;;;;;;;7.80;4.43;;;;;;;4.54;89.27;101364.69;5008005;28;20556;-47
2022/01/29 10:11:38;;;;;;;6.20;3.38;;;;;;;4.53;89.91;101350.59;5008013;28;20037;-46
2022/01/29 10:14:05;;;;;;;6.10;3.88;;;;;;;4.56;89.36;101349.41;5005786;28;20033;-48
2022/01/29 10:16:34;;;;;;;6.03;3.88;;;;;;;4.53;90.47;101347.97;5007346;28;20434;-46
2022/01/29 10:19:12;;;;;;;7.03;3.67;;;;;;;4.55;90.74;101348.59;5007893;28;20133;-49
2022/01/29 10:21:47;;;;;;;7.43;4.43;;;;;;;4.61;89.78;101340.84;5007477;28;20228;-46
2022/01/29 10:24:15;;;;;;;8.10;4.63;;;;;;;4.63;89.66;101321.06;5006995;28;20408;-46
2022/01/29 10:26:43;;;;;;;7.15;4.35;;;;;;;4.62;91.09;101315.94;5005821;28;20245;-46
2022/01/29 10:29:18;;;;;;;7.28;4.22;;;;;;;4.65;90.55;101311.06;5005803;28;20097;-46
2022/01/29 10:31:46;;;;;;;6.07;4.20;;;;;;;4.65;91.05;101310.25;5004155;28;20032;-47
2022/01/29 10:34:23;;;;;;;8.00;4.90;;;;;;;4.63;91.89;101305.13;5006230;28;20030;-46
2022/01/29 10:37:10;;;;;;;8.48;4.80;;;;;;;4.66;91.15;101310.03;5006278;28;20524;-47
2022/01/29 10:39:36;;;;;;;10.98;5.82;;;;;;;4.71;91.11;101306.81;5005264;28;20030;-45
2022/01/29 10:42:20;;;;;;;9.48;5.47;;;;;;;4.72;91.22;101308.47;5005131;28;20040;-47
2022/01/29 10:44:48;;;;;;;12.20;5.68;;;;;;;4.74;91.57;101301.94;5004351;28;20037;-46
2022/01/29 10:47:14;;;;;;;10.93;5.78;;;;;;;4.77;91.71;101303.38;5005648;28;20415;-46
2022/01/29 10:49:50;;;;;;;10.63;5.55;;;;;;;4.77;91.25;101298.88;5007261;28;20503;-47
2022/01/29 10:52:17;;;;;;;11.07;6.30;;;;;;;4.82;91.64;101303.59;5006922;28;20032;-45
2022/01/29 10:54:44;;;;;;;9.93;5.75;;;;;;;4.84;91.51;101299.72;5006836;28;20036;-47
2022/01/29 10:57:19;;;;;;;12.95;6.60;;;;;;;4.85;91.87;101297.91;5004949;28;20142;-46
2022/01/29 10:59:53;;;;;;;14.20;6.82;;;;;;;4.85;91.50;101292.63;5006188;28;20030;-46
2022/01/29 11:02:21;;;;;;;12.40;6.97;;;;;;;4.91;91.17;101277.72;5005393;28;20042;-46
2022/01/29 11:04:48;;;;;;;15.13;8.35;;;;;;;4.95;90.68;101266.50;5005097;28;20410;-46
2022/01/29 11:07:19;;;;;;;12.57;7.22;;;;;;;4.95;91.47;101261.19;5006063;28;20462;-46
2022/01/29 11:09:47;;;;;;;14.32;7.90;;;;;;;4.97;91.74;101269.78;5006262;28;20499;-46
2022/01/29 11:12:23;;;;;;;14.00;8.00;;;;;;;5.00;91.59;101253.44;5004825;28;20025;-46
2022/01/29 11:14:52;;;;;;;19.05;8.32;;;;;;;5.03;91.88;101245.09;5005038;28;20431;-47
2022/01/29 11:17:18;;;;;;;17.85;9.23;;;;;;;5.02;93.14;101237.28;5006039;28;20022;-47
2022/01/29 11:19:44;;;;;;;15.77;8.32;;;;;;;5.06;92.98;101234.06;5005700;28;20104;-47
2022/01/29 11:22:11;;;;;;;15.82;8.80;;;;;;;5.07;93.63;101224.25;5005552;28;20421;-47
2022/01/29 11:24:40;;;;;;;16.40;9.30;;;;;;;5.15;92.94;101216.09;5004794;28;20301;-47
2022/01/29 11:27:26;;;;;;;17.45;8.88;;;;;;;5.16;92.97;101197.31;5006362;28;20026;-46
2022/01/29 11:29:59;;;;;;;18.88;9.40;;;;;;;5.21;93.71;101187.94;5005753;28;20302;-46
2022/01/29 11:32:33;;;;;;;19.85;9.40;;;;;;;5.20;94.19;101173.81;5003992;28;20029;-47
2022/01/29 11:35:01;;;;;;;19.25;9.02;;;;;;;5.24;93.73;101168.94;5004922;28;20124;-46
2022/01/29 11:37:41;;;;;;;17.40;9.52;;;;;;;5.26;94.51;101158.91;5004379;28;20079;-46